Time;durP1;ratioP1;P1;durP2;ratioP2;P2;SDS_P1;SDS_P2;PMS_P1;PMS_P2;Temp;Humidity;BMP_temperature;BMP_pressure;BME280_temperature;BME280_humidity;BME280_pressure;Samples;Min_cycle;Max_cycle;Signal;HPM_P1;HPM_P2
2023/02/14 00:01:30;;;;;;;2.92;1.30;;;18.50;43.90;;;;;;5136276;27;20162;-80
2023/02/14 00:03:59;;;;;;;1.00;0.82;;;18.50;44.00;;;;;;5136080;27;20551;-81
2023/02/14 00:06:25;;;;;;;3.10;1.23;;;18.50;44.10;;;;;;5136042;27;20622;-81
2023/02/14 00:08:52;;;;;;;3.63;1.10;;;18.50;44.00;;;;;;5134895;27;20235;-81
2023/02/14 00:11:18;;;;;;;2.85;1.10;;;18.40;44.00;;;;;;5136226;27;20247;-82
2023/02/14 00:15:20;;;;;;;1.42;0.80;;;18.40;44.00;;;;;;5117613;27;20608;-82
2023/02/14 00:16:30;;;;;;;3.38;1.30;;;18.40;44.00;;;;;;5135606;27;20341;-81
2023/02/14 00:19:03;;;;;;;3.10;1.10;;;18.40;44.10;;;;;;5136103;27;20219;-81
2023/02/14 00:21:29;;;;;;;1.67;1.00;;;18.40;44.10;;;;;;5135831;27;20156;-81
2023/02/14 00:23:55;;;;;;;2.35;1.00;;;18.40;44.10;;;;;;5134629;27;20147;-81
2023/02/14 00:26:21;;;;;;;1.58;1.00;;;18.50;44.10;;;;;;5134797;27;20628;-81
2023/02/14 00:28:46;;;;;;;1.10;0.95;;;18.40;44.70;;;;;;5134604;27;20621;-82
2023/02/14 00:31:12;;;;;;;3.63;1.05;;;18.40;44.20;;;;;;5134349;27;20527;-81
2023/02/14 00:33:38;;;;;;;2.22;1.15;;;18.40;44.10;;;;;;5135727;27;20183;-81
2023/02/14 00:36:04;;;;;;;1.85;1.02;;;18.40;44.20;;;;;;5135764;27;20705;-81
2023/02/14 00:38:30;;;;;;;2.95;1.05;;;18.40;44.10;;;;;;5134489;27;20594;-81
2023/02/14 00:40:55;;;;;;;1.20;0.75;;;18.40;44.20;;;;;;5134442;27;20173;-80
2023/02/14 00:43:21;;;;;;;2.03;0.88;;;18.40;44.20;;;;;;5135387;27;20515;-81
2023/02/14 00:45:47;;;;;;;1.35;1.00;;;18.40;44.20;;;;;;5135333;27;20159;-81
2023/02/14 00:48:12;;;;;;;2.78;0.95;;;18.40;44.20;;;;;;5135328;27;20663;-81
2023/02/14 00:50:38;;;;;;;2.45;0.90;;;18.30;44.20;;;;;;5135168;27;20640;-80
2023/02/14 00:53:03;;;;;;;2.33;1.40;;;18.30;44.30;;;;;;5135157;27;20628;-81
2023/02/14 00:55:29;;;;;;;3.10;1.10;;;18.30;44.40;;;;;;5133526;27;20685;-81
2023/02/14 00:57:55;;;;;;;2.50;1.10;;;18.30;44.40;;;;;;5135036;27;20612;-81
2023/02/14 01:00:21;;;;;;;1.95;1.10;;;18.30;44.40;;;;;;5135031;27;20147;-83
2023/02/14 01:02:47;;;;;;;1.50;1.00;;;18.30;44.40;;;;;;5135048;27;20155;-81
2023/02/14 01:05:12;;;;;;;1.55;0.90;;;18.30;44.40;;;;;;5134636;27;20151;-81
2023/02/14 01:07:38;;;;;;;2.00;1.10;;;18.30;44.40;;;;;;5134957;27;20520;-81
2023/02/14 01:10:04;;;;;;;1.05;0.80;;;18.30;44.40;;;;;;5134924;27;20155;-82
2023/02/14 01:12:30;;;;;;;1.70;1.00;;;18.30;44.40;;;;;;5135030;27;20155;-82
2023/02/14 01:14:55;;;;;;;1.05;0.90;;;18.30;44.50;;;;;;5134864;27;20155;-81
2023/02/14 01:17:21;;;;;;;2.30;1.20;;;18.20;44.50;;;;;;5134658;27;20724;-81
2023/02/14 01:19:46;;;;;;;2.55;1.08;;;18.20;44.50;;;;;;5133565;27;20601;-82
2023/02/14 01:22:12;;;;;;;1.92;1.08;;;18.30;44.40;;;;;;5116346;27;20514;-81
2023/02/14 01:24:38;;;;;;;1.50;1.00;;;18.30;44.40;;;;;;5134574;27;20628;-82
2023/02/14 01:27:03;;;;;;;1.23;0.93;;;18.30;44.50;;;;;;5116308;27;20617;-81
2023/02/14 01:29:29;;;;;;;1.90;1.05;;;18.20;44.50;;;;;;5134516;27;20621;-81
2023/02/14 01:31:55;;;;;;;1.83;0.90;;;18.30;44.60;;;;;;5133264;27;20148;-81
2023/02/14 01:34:20;;;;;;;1.25;0.90;;;18.20;44.60;;;;;;5134510;27;20601;-81
2023/02/14 01:36:46;;;;;;;2.15;0.95;;;18.20;44.50;;;;;;5134325;27;20674;-81
2023/02/14 01:39:13;;;;;;;2.10;0.93;;;18.20;44.60;;;;;;5134484;27;20686;-81
2023/02/14 01:41:40;;;;;;;1.50;0.88;;;18.20;44.50;;;;;;5133156;27;20249;-81
2023/02/14 01:44:27;;;;;;;1.92;1.15;;;18.20;44.50;;;;;;5133260;27;20159;-82
2023/02/14 01:46:55;;;;;;;2.55;0.80;;;18.20;44.60;;;;;;5104652;27;20187;-82
2023/02/14 01:49:25;;;;;;;2.08;0.90;;;18.20;44.60;;;;;;5133409;27;20155;-81
2023/02/14 01:51:59;;;;;;;3.58;1.13;;;18.20;44.60;;;;;;5133456;27;20143;-81
2023/02/14 01:54:25;;;;;;;2.45;1.10;;;18.20;44.60;;;;;;5134491;27;20166;-80
2023/02/14 01:56:53;;;;;;;1.17;0.80;;;18.20;44.60;;;;;;5132849;28;20221;-80
2023/02/14 01:59:21;;;;;;;3.28;1.10;;;18.20;44.60;;;;;;5116147;28;20194;-81
2023/02/14 02:01:47;;;;;;;1.33;1.08;;;18.20;44.60;;;;;;5134242;28;20158;-81
2023/02/14 02:04:18;;;;;;;3.33;0.90;;;18.20;44.70;;;;;;5134074;28;20156;-81
2023/02/14 02:06:46;;;;;;;2.90;0.95;;;18.20;44.70;;;;;;5115913;28;20621;-81
2023/02/14 02:09:24;;;;;;;2.10;0.80;;;18.10;44.60;;;;;;5133244;28;20164;-82
2023/02/14 02:11:49;;;;;;;1.88;1.00;;;18.20;44.60;;;;;;5116438;28;20204;-80
2023/02/14 02:14:18;;;;;;;1.45;0.98;;;18.20;44.60;;;;;;5134104;28;20152;-81
2023/02/14 02:17:11;;;;;;;3.15;1.05;;;18.20;44.60;;;;;;5098995;28;20692;-81
2023/02/14 02:20:01;;;;;;;0.93;0.80;;;18.10;44.60;;;;;;5122036;27;20597;-81
2023/02/14 02:22:50;;;;;;;1.98;1.10;;;18.20;44.60;;;;;;5138295;27;20236;-81
2023/02/14 02:25:51;;;;;;;1.90;1.17;;;18.20;44.70;;;;;;5138011;27;20558;-81
2023/02/14 02:28:42;;;;;;;1.02;0.82;;;18.10;44.70;;;;;;5138343;27;20231;-81
2023/02/14 02:31:36;;;;;;;2.42;1.00;;;18.20;44.70;;;;;;5137806;27;20637;-80
2023/02/14 02:34:31;;;;;;;1.30;1.17;;;18.20;44.70;;;;;;5136594;27;20226;-80
2023/02/14 02:37:21;;;;;;;1.52;0.82;;;18.10;44.70;;;;;;5137782;27;20199;-81
2023/02/14 02:40:02;;;;;;;1.92;1.08;;;18.10;44.70;;;;;;5136793;27;20238;-81
2023/02/14 02:42:35;;;;;;;1.15;0.80;;;18.10;44.80;;;;;;5136607;27;20610;-81
2023/02/14 02:45:25;;;;;;;1.00;0.77;;;18.10;45.40;;;;;;5136500;27;20208;-81
2023/02/14 02:47:57;;;;;;;2.20;1.00;;;18.10;44.70;;;;;;5122057;27;20516;-82
2023/02/14 02:53:14;;;;;;;1.88;1.05;;;18.10;44.70;;;;;;5137899;27;20194;-81
2023/02/14 02:59:17;;;;;;;1.35;1.08;;;18.10;44.80;;;;;;5137353;27;20625;-79
2023/02/14 03:01:44;;;;;;;1.52;1.00;;;18.10;44.90;;;;;;5136553;27;20155;-80
2023/02/14 03:06:47;;;;;;;1.58;1.10;;;18.10;45.00;;;;;;5137333;27;20238;-81
2023/02/14 03:09:49;;;;;;;2.60;0.93;;;18.10;45.00;;;;;;5136379;27;20629;-82
2023/02/14 03:12:28;;;;;;;1.30;0.90;;;18.10;45.00;;;;;;5137328;27;20147;-82
2023/02/14 03:15:11;;;;;;;2.47;0.90;;;18.10;45.00;;;;;;5119861;27;20160;-81
2023/02/14 03:18:01;;;;;;;1.15;1.05;;;18.00;45.00;;;;;;5137319;27;20165;-81
2023/02/14 03:20:51;;;;;;;1.38;0.90;;;18.10;45.00;;;;;;5136048;27;20152;-81
2023/02/14 03:23:22;;;;;;;1.00;0.90;;;18.10;45.00;;;;;;5137028;27;20208;-81
2023/02/14 03:26:11;;;;;;;1.15;1.00;;;18.00;45.00;;;;;;5136066;27;20163;-81
2023/02/14 03:28:52;;;;;;;2.33;0.90;;;18.00;45.00;;;;;;5135233;27;20155;-82
2023/02/14 03:31:33;;;;;;;1.85;1.10;;;18.00;45.00;;;;;;5135702;27;20150;-81
2023/02/14 03:34:07;;;;;;;1.58;1.00;;;18.00;45.00;;;;;;5136699;27;20167;-81
2023/02/14 03:36:37;;;;;;;2.00;1.00;;;18.00;45.00;;;;;;5135389;27;20706;-82
2023/02/14 03:39:25;;;;;;;1.00;0.70;;;18.00;45.10;;;;;;5136696;27;20608;-81
2023/02/14 03:41:55;;;;;;;1.23;1.00;;;18.00;45.20;;;;;;5121712;27;20170;-80
2023/02/14 03:44:21;;;;;;;1.17;0.90;;;18.00;45.20;;;;;;5118629;27;20228;-81
2023/02/14 03:47:03;;;;;;;0.80;0.80;;;18.00;45.20;;;;;;5136580;27;20231;-81
2023/02/14 03:49:30;;;;;;;1.30;1.10;;;18.00;45.20;;;;;;5135602;27;20175;-80
2023/02/14 03:51:57;;;;;;;2.58;1.10;;;18.00;45.10;;;;;;5135214;27;20635;-80
2023/02/14 03:54:23;;;;;;;1.52;1.20;;;18.00;45.10;;;;;;5118091;27;20163;-81
2023/02/14 03:56:52;;;;;;;1.83;1.02;;;18.00;45.20;;;;;;5134847;27;20719;-80
2023/02/14 03:59:20;;;;;;;0.93;0.90;;;18.00;45.20;;;;;;5135145;27;20144;-80
2023/02/14 04:02:01;;;;;;;1.35;1.00;;;18.00;45.20;;;;;;5136280;27;20605;-81
2023/02/14 04:04:28;;;;;;;1.33;1.10;;;18.00;45.10;;;;;;5135143;27;20156;-81
2023/02/14 04:06:54;;;;;;;1.58;1.00;;;17.90;45.20;;;;;;5136131;27;20156;-81
2023/02/14 04:09:20;;;;;;;1.52;0.90;;;17.90;45.30;;;;;;5134892;27;20163;-81
2023/02/14 04:11:45;;;;;;;1.40;0.95;;;17.90;45.20;;;;;;5136333;27;20507;-81
2023/02/14 04:14:11;;;;;;;1.75;1.08;;;18.00;45.30;;;;;;5135910;27;20487;-81
2023/02/14 04:19:23;;;;;;;1.50;0.90;;;17.90;45.30;;;;;;5134774;27;20598;-81
2023/02/14 04:21:50;;;;;;;2.08;1.17;;;17.90;45.30;;;;;;5102668;27;20563;-81
2023/02/14 04:24:15;;;;;;;1.92;1.02;;;17.90;45.30;;;;;;5135955;27;20182;-81
2023/02/14 04:26:52;;;;;;;1.45;1.20;;;17.90;45.30;;;;;;5135982;27;20160;-80
2023/02/14 04:29:19;;;;;;;1.20;0.90;;;17.90;45.20;;;;;;5135697;27;20148;-81
2023/02/14 04:31:45;;;;;;;0.93;0.80;;;17.90;45.20;;;;;;5135725;27;20222;-81
2023/02/14 04:34:11;;;;;;;2.28;0.95;;;17.90;45.20;;;;;;5135539;27;20191;-81
2023/02/14 04:36:37;;;;;;;1.50;1.00;;;17.90;45.30;;;;;;5136011;27;20191;-80
2023/02/14 04:39:02;;;;;;;3.00;1.10;;;17.90;45.40;;;;;;5135892;27;20156;-81
2023/02/14 04:41:28;;;;;;;1.90;1.00;;;17.90;45.50;;;;;;5134605;27;20630;-81
2023/02/14 04:43:54;;;;;;;2.05;0.90;;;17.80;45.50;;;;;;5135375;27;20152;-81
2023/02/14 04:46:19;;;;;;;1.02;0.80;;;17.90;45.50;;;;;;5135359;27;20528;-81
2023/02/14 04:48:45;;;;;;;1.70;1.05;;;17.90;45.60;;;;;;5135255;27;20609;-81
2023/02/14 04:51:10;;;;;;;1.25;1.00;;;17.90;45.50;;;;;;5135311;27;20177;-81
2023/02/14 04:53:39;;;;;;;2.08;1.10;;;17.90;45.50;;;;;;5133997;27;20614;-81
2023/02/14 04:56:05;;;;;;;1.45;0.90;;;17.80;45.50;;;;;;5100193;27;20636;-81
2023/02/14 04:58:31;;;;;;;1.58;1.05;;;17.90;45.50;;;;;;5135179;27;20151;-81
2023/02/14 05:00:57;;;;;;;1.58;1.00;;;17.90;45.50;;;;;;5135063;27;20225;-81
2023/02/14 05:03:23;;;;;;;0.95;0.85;;;17.90;45.50;;;;;;5135001;27;20159;-81
2023/02/14 05:05:48;;;;;;;1.35;0.98;;;17.90;45.50;;;;;;5133911;27;20717;-81
2023/02/14 05:08:14;;;;;;;2.03;0.80;;;17.90;45.50;;;;;;5134880;27;20152;-81
2023/02/14 05:10:40;;;;;;;1.35;0.85;;;17.90;45.50;;;;;;5134906;27;20522;-81
2023/02/14 05:13:05;;;;;;;1.30;0.80;;;17.90;45.50;;;;;;5134805;27;20158;-81
2023/02/14 05:15:31;;;;;;;1.40;1.10;;;17.90;45.40;;;;;;5133476;27;20500;-81
2023/02/14 05:18:00;;;;;;;1.05;0.77;;;17.80;45.50;;;;;;5133666;27;20232;-81
2023/02/14 05:20:27;;;;;;;1.55;0.98;;;17.90;45.50;;;;;;5133834;27;20163;-81
2023/02/14 05:22:52;;;;;;;1.48;1.17;;;17.90;45.60;;;;;;5134910;27;20162;-82
2023/02/14 05:25:18;;;;;;;1.00;0.90;;;17.90;45.50;;;;;;5133492;27;20152;-81
2023/02/14 05:27:44;;;;;;;1.20;0.80;;;17.90;45.60;;;;;;5134592;27;20204;-81
2023/02/14 05:30:11;;;;;;;1.58;1.20;;;17.90;45.40;;;;;;5134556;27;20156;-82
2023/02/14 05:32:36;;;;;;;1.50;1.00;;;17.90;45.50;;;;;;5134560;27;20230;-81
2023/02/14 05:35:02;;;;;;;1.23;1.00;;;17.90;45.50;;;;;;5134675;27;20187;-81
2023/02/14 05:37:28;;;;;;;1.13;0.98;;;17.90;45.50;;;;;;5134958;27;20229;-80
2023/02/14 05:39:53;;;;;;;1.70;1.00;;;17.90;46.10;;;;;;5134331;27;20205;-80
2023/02/14 05:42:19;;;;;;;1.35;0.80;;;17.90;45.40;;;;;;5133262;27;20704;-81
2023/02/14 05:44:45;;;;;;;1.00;0.88;;;17.90;45.40;;;;;;5133160;27;20155;-81
2023/02/14 05:47:10;;;;;;;1.65;0.90;;;17.90;45.40;;;;;;5134323;27;20518;-81
2023/02/14 05:49:36;;;;;;;2.20;1.02;;;17.90;45.40;;;;;;5133056;27;20563;-81
2023/02/14 05:52:02;;;;;;;2.35;1.00;;;17.90;45.40;;;;;;5134015;27;20159;-80
2023/02/14 05:54:27;;;;;;;1.23;0.80;;;17.90;45.40;;;;;;5133090;27;20289;-81
2023/02/14 05:56:53;;;;;;;2.47;0.90;;;17.90;45.40;;;;;;5133866;27;20218;-81
2023/02/14 05:59:19;;;;;;;0.95;0.73;;;18.00;45.40;;;;;;5134159;28;20564;-81
2023/02/14 06:01:44;;;;;;;1.45;1.10;;;17.90;45.30;;;;;;5134553;28;20511;-80
2023/02/14 06:04:10;;;;;;;1.88;1.00;;;17.90;45.30;;;;;;5132920;28;20155;-81
2023/02/14 06:06:36;;;;;;;1.27;0.75;;;18.00;45.30;;;;;;5132976;28;20629;-80
2023/02/14 06:09:02;;;;;;;2.00;0.98;;;17.90;45.30;;;;;;5134392;28;20212;-81
2023/02/14 06:11:27;;;;;;;1.55;0.93;;;17.90;45.40;;;;;;5134029;28;20231;-81
2023/02/14 06:13:53;;;;;;;1.98;1.00;;;17.90;45.40;;;;;;5132828;28;20515;-80
2023/02/14 06:16:18;;;;;;;1.42;0.88;;;17.90;45.40;;;;;;5134249;28;20603;-81
2023/02/14 06:18:44;;;;;;;1.00;0.95;;;17.90;45.40;;;;;;5133930;28;20140;-82
2023/02/14 06:21:10;;;;;;;0.93;0.70;;;17.90;45.40;;;;;;5134101;28;20573;-81
2023/02/14 06:23:35;;;;;;;1.98;0.90;;;17.90;45.40;;;;;;5115728;28;20562;-82
2023/02/14 06:26:02;;;;;;;1.63;1.00;;;17.90;45.30;;;;;;5133931;28;20158;-82
2023/02/14 06:28:28;;;;;;;2.33;1.00;;;17.90;45.30;;;;;;5133273;28;20258;-81
2023/02/14 06:30:53;;;;;;;2.10;0.90;;;17.90;45.40;;;;;;5132666;28;20243;-81
2023/02/14 06:33:19;;;;;;;1.23;0.90;;;17.90;45.30;;;;;;5132765;28;20300;-81
2023/02/14 06:35:44;;;;;;;1.15;0.82;;;17.90;45.30;;;;;;5133750;28;20206;-81
2023/02/14 06:38:10;;;;;;;1.55;0.85;;;18.00;45.30;;;;;;5133814;28;20144;-81
2023/02/14 06:40:36;;;;;;;1.30;1.00;;;17.90;45.30;;;;;;5133848;28;20518;-81
2023/02/14 06:43:01;;;;;;;1.00;0.90;;;18.00;45.30;;;;;;5133730;28;20170;-81
2023/02/14 06:45:27;;;;;;;1.13;0.93;;;18.00;45.30;;;;;;5132493;28;20503;-81
2023/02/14 06:47:53;;;;;;;1.58;1.00;;;18.00;45.30;;;;;;5133936;28;20569;-80
2023/02/14 06:50:18;;;;;;;1.02;0.85;;;18.00;45.30;;;;;;5133640;28;20160;-81
2023/02/14 06:52:44;;;;;;;2.80;1.08;;;18.00;45.30;;;;;;5133810;28;20152;-81
2023/02/14 06:55:12;;;;;;;1.33;0.85;;;17.90;45.20;;;;;;5133619;28;20148;-81
2023/02/14 06:57:39;;;;;;;1.10;0.90;;;18.00;45.30;;;;;;5133627;28;20222;-81
2023/02/14 07:00:05;;;;;;;1.08;0.80;;;18.00;45.40;;;;;;5133682;28;20510;-81
2023/02/14 07:02:31;;;;;;;1.17;0.90;;;17.90;45.20;;;;;;5133541;27;20152;-81
2023/02/14 07:04:56;;;;;;;2.30;1.00;;;18.00;45.30;;;;;;5136900;27;20155;-83
2023/02/14 07:07:22;;;;;;;1.50;0.93;;;17.90;45.30;;;;;;5137334;27;20531;-80
2023/02/14 07:09:48;;;;;;;3.22;1.00;;;18.00;45.30;;;;;;5137536;27;20182;-81
2023/02/14 07:12:13;;;;;;;1.17;0.80;;;18.00;45.30;;;;;;5137201;27;20287;-81
2023/02/14 07:14:39;;;;;;;1.42;1.10;;;18.00;45.30;;;;;;5137119;27;20635;-81
2023/02/14 07:17:04;;;;;;;0.82;0.80;;;18.00;45.30;;;;;;5137963;27;20611;-80
2023/02/14 07:19:30;;;;;;;2.05;1.10;;;18.00;45.40;;;;;;5138173;27;20162;-82
2023/02/14 07:21:56;;;;;;;1.17;0.90;;;17.90;45.30;;;;;;5137794;27;20155;-80
2023/02/14 07:24:21;;;;;;;1.10;0.85;;;17.90;45.40;;;;;;5137922;27;20166;-83
2023/02/14 07:26:47;;;;;;;1.23;1.00;;;17.90;45.40;;;;;;5137400;27;20175;-80
2023/02/14 07:29:13;;;;;;;0.80;0.80;;;18.00;45.50;;;;;;5137947;27;20610;-80
2023/02/14 07:31:38;;;;;;;0.80;0.80;;;17.90;45.40;;;;;;5138160;27;20157;-81
2023/02/14 07:34:04;;;;;;;1.58;0.80;;;18.00;45.30;;;;;;5138944;27;20159;-82
2023/02/14 07:36:30;;;;;;;1.45;0.80;;;18.00;44.90;;;;;;5139019;27;20636;-82
2023/02/14 07:38:57;;;;;;;1.02;0.82;;;18.10;45.00;;;;;;5138788;27;20200;-81
2023/02/14 07:41:22;;;;;;;2.75;1.08;;;18.20;44.70;;;;;;5139695;27;20676;-80
2023/02/14 07:43:48;;;;;;;3.15;1.17;;;18.20;44.70;;;;;;5139747;27;20228;-81
2023/02/14 07:46:16;;;;;;;1.10;0.85;;;18.30;44.80;;;;;;5139204;27;20166;-81
2023/02/14 07:48:41;;;;;;;1.60;0.75;;;18.20;44.70;;;;;;5136683;27;20186;-81
2023/02/14 07:51:07;;;;;;;1.73;0.90;;;18.30;44.50;;;;;;5137104;27;20614;-81
2023/02/14 07:53:33;;;;;;;1.20;0.90;;;18.30;44.50;;;;;;5118850;27;20148;-81
2023/02/14 07:55:58;;;;;;;2.30;1.05;;;18.30;44.30;;;;;;5118593;27;20306;-82
2023/02/14 07:58:25;;;;;;;1.95;0.85;;;18.40;44.30;;;;;;5137591;27;20170;-81
2023/02/14 08:00:51;;;;;;;0.70;0.70;;;18.40;44.10;;;;;;5137285;27;20584;-80
2023/02/14 08:03:18;;;;;;;1.63;0.95;;;18.40;44.20;;;;;;5139579;27;20197;-81
2023/02/14 08:05:43;;;;;;;0.73;0.60;;;18.50;44.20;;;;;;5139520;27;20170;-80
2023/02/14 08:08:09;;;;;;;2.92;0.80;;;18.50;44.10;;;;;;5138945;27;20155;-81
2023/02/14 08:10:35;;;;;;;0.93;0.70;;;18.50;44.10;;;;;;5137913;27;20159;-82
2023/02/14 08:13:00;;;;;;;1.42;0.98;;;18.50;44.20;;;;;;5138674;27;20143;-81
2023/02/14 08:18:05;;;;;;;1.13;0.73;;;18.40;44.20;;;;;;5138453;27;20158;-82
2023/02/14 08:20:31;;;;;;;1.85;0.90;;;18.50;44.30;;;;;;5137653;27;20151;-82
2023/02/14 08:22:56;;;;;;;1.75;0.77;;;18.40;44.40;;;;;;5136382;27;20163;-83
2023/02/14 08:25:22;;;;;;;0.90;0.50;;;18.50;44.50;;;;;;5136961;27;20152;-83
2023/02/14 08:27:48;;;;;;;1.38;0.82;;;18.40;44.40;;;;;;5136058;27;20155;-82
2023/02/14 08:30:14;;;;;;;1.05;0.82;;;18.40;44.40;;;;;;5136035;27;20552;-82
2023/02/14 08:32:39;;;;;;;1.35;0.95;;;18.50;44.40;;;;;;5134804;27;20243;-83
2023/02/14 08:35:05;;;;;;;0.75;0.60;;;18.40;44.30;;;;;;5135735;27;20234;-83
2023/02/14 08:37:31;;;;;;;1.20;0.80;;;18.40;44.40;;;;;;5136003;27;20637;-82
2023/02/14 08:39:57;;;;;;;1.63;0.65;;;18.50;44.40;;;;;;5117429;27;20202;-83
2023/02/14 08:42:22;;;;;;;1.80;0.70;;;18.50;44.50;;;;;;5134287;27;20181;-84
2023/02/14 08:44:48;;;;;;;0.80;0.70;;;18.40;44.40;;;;;;5117873;27;20521;-82
2023/02/14 08:47:14;;;;;;;0.88;0.77;;;18.40;44.50;;;;;;5134209;27;20155;-82
2023/02/14 08:49:39;;;;;;;1.13;0.77;;;18.40;44.20;;;;;;5136007;27;20609;-83
2023/02/14 08:52:05;;;;;;;1.17;0.60;;;18.40;44.10;;;;;;5136680;27;20496;-82
2023/02/14 08:54:31;;;;;;;1.10;0.75;;;18.40;44.20;;;;;;5134221;27;20152;-82
2023/02/14 08:56:56;;;;;;;1.13;0.60;;;18.40;44.20;;;;;;5134590;27;20608;-82
2023/02/14 08:59:22;;;;;;;0.73;0.63;;;18.40;44.30;;;;;;5136364;27;20148;-82
2023/02/14 09:01:48;;;;;;;0.63;0.63;;;18.50;44.40;;;;;;5134620;27;20151;-82
2023/02/14 09:04:13;;;;;;;0.80;0.80;;;18.50;44.40;;;;;;5118436;27;20636;-82
2023/02/14 09:06:39;;;;;;;0.82;0.77;;;18.40;44.30;;;;;;5133969;27;20580;-82
2023/02/14 09:09:05;;;;;;;0.60;0.60;;;18.50;44.40;;;;;;5134971;27;20500;-82
2023/02/14 09:11:31;;;;;;;1.00;0.57;;;18.50;44.40;;;;;;5117094;27;20216;-83
2023/02/14 09:13:57;;;;;;;4.60;0.93;;;18.40;44.20;;;;;;5134709;27;20594;-83
2023/02/14 09:16:23;;;;;;;3.22;0.65;;;18.50;44.40;;;;;;5116875;27;20186;-82
2023/02/14 09:18:49;;;;;;;2.45;0.80;;;18.60;44.30;;;;;;5117040;27;20636;-82
2023/02/14 09:21:16;;;;;;;1.50;0.70;;;18.60;44.30;;;;;;5134527;27;20152;-82
2023/02/14 09:23:42;;;;;;;1.67;0.50;;;18.50;44.30;;;;;;5099631;27;20166;-82
2023/02/14 09:26:09;;;;;;;1.65;1.20;;;18.60;44.20;;;;;;5133379;27;20155;-83
2023/02/14 09:28:35;;;;;;;2.67;0.90;;;18.60;44.30;;;;;;5099624;27;20259;-83
2023/02/14 09:31:10;;;;;;;6.63;0.98;;;18.60;44.20;;;;;;5134498;27;20155;-82
2023/02/14 09:38:55;;;;;;;14.18;1.67;;;18.60;44.40;;;;;;5135581;27;20582;-84
2023/02/14 09:42:00;;;;;;;19.75;1.73;;;18.60;44.40;;;;;;5106983;28;20171;-83
2023/02/14 09:44:33;;;;;;;13.05;2.00;;;18.60;44.40;;;;;;5113358;28;20555;-83
2023/02/14 09:47:38;;;;;;;14.52;2.17;;;18.60;44.40;;;;;;5122305;27;20172;-84
2023/02/14 09:50:06;;;;;;;25.83;2.53;;;18.60;44.40;;;;;;5093137;28;20652;-83
2023/02/14 09:52:32;;;;;;;21.60;3.15;;;18.60;44.40;;;;;;5094450;28;20168;-84
2023/02/14 09:55:00;;;;;;;20.13;2.60;;;18.60;44.30;;;;;;5109460;28;20591;-82
2023/02/14 09:57:39;;;;;;;25.33;2.97;;;18.60;44.30;;;;;;5095905;28;20287;-83
2023/02/14 10:00:39;;;;;;;21.40;2.10;;;18.70;44.40;;;;;;5113346;28;20176;-83
2023/02/14 10:03:28;;;;;;;16.33;2.40;;;18.60;44.40;;;;;;5114737;28;20168;-83
2023/02/14 10:06:18;;;;;;;13.98;1.73;;;18.70;44.40;;;;;;5112565;28;20156;-83
2023/02/14 10:09:02;;;;;;;11.90;1.67;;;18.70;44.30;;;;;;5111912;28;20618;-83
2023/02/14 10:11:28;;;;;;;8.80;1.58;;;18.70;44.30;;;;;;5113537;28;20155;-83
2023/02/14 10:14:04;;;;;;;8.25;1.27;;;18.70;44.20;;;;;;5114283;28;20521;-83
2023/02/14 10:16:35;;;;;;;8.07;1.52;;;18.70;44.20;;;;;;5114930;28;20206;-82
2023/02/14 10:19:06;;;;;;;8.38;1.27;;;18.70;44.20;;;;;;5112351;28;20175;-82
2023/02/14 10:21:37;;;;;;;8.70;1.30;;;18.70;44.20;;;;;;5112798;28;20148;-84
2023/02/14 10:24:28;;;;;;;11.45;1.48;;;18.70;44.30;;;;;;5114147;28;20153;-82
2023/02/14 10:26:56;;;;;;;13.82;1.40;;;18.70;44.20;;;;;;5098466;28;20256;-82
2023/02/14 10:29:22;;;;;;;18.92;2.47;;;18.70;44.20;;;;;;5113341;28;20627;-83
2023/02/14 10:32:02;;;;;;;15.80;2.25;;;18.70;44.20;;;;;;5113065;28;20173;-83
2023/02/14 10:34:42;;;;;;;29.95;2.92;;;18.70;44.20;;;;;;5102545;28;20198;-82
2023/02/14 10:37:29;;;;;;;28.83;3.03;;;18.70;44.10;;;;;;5094401;28;20584;-83
2023/02/14 10:40:29;;;;;;;21.60;2.42;;;18.70;44.10;;;;;;5117928;28;20153;-83
2023/02/14 10:43:19;;;;;;;29.38;2.63;;;18.80;44.10;;;;;;5131247;28;20164;-83
2023/02/14 10:46:12;;;;;;;20.00;2.60;;;18.80;44.10;;;;;;5115628;28;20172;-83
2023/02/14 10:49:09;;;;;;;13.55;2.00;;;18.80;44.00;;;;;;5111998;27;20260;-82
2023/02/14 10:51:45;;;;;;;10.88;1.85;;;18.80;44.10;;;;;;5126349;27;20149;-82
2023/02/14 10:54:22;;;;;;;11.68;1.67;;;18.80;44.70;;;;;;5131177;27;20206;-82
2023/02/14 10:56:54;;;;;;;10.10;1.52;;;18.80;44.10;;;;;;5115886;28;20215;-82
2023/02/14 10:59:24;;;;;;;8.52;1.27;;;18.90;44.10;;;;;;5130985;27;20171;-82
2023/02/14 11:01:51;;;;;;;11.88;1.45;;;18.80;44.00;;;;;;5119001;27;20161;-83
2023/02/14 11:04:17;;;;;;;12.73;1.63;;;18.80;44.00;;;;;;5097539;28;20286;-82
2023/02/14 11:06:42;;;;;;;11.88;1.73;;;18.80;43.90;;;;;;5101659;28;20216;-83
2023/02/14 11:09:11;;;;;;;7.25;1.63;;;18.80;43.90;;;;;;5096733;28;20600;-82
2023/02/14 11:11:39;;;;;;;4.78;1.15;;;18.80;43.80;;;;;;5101520;28;20245;-82
2023/02/14 11:14:24;;;;;;;9.30;1.70;;;18.80;43.80;;;;;;5128769;27;20186;-82
2023/02/14 11:16:51;;;;;;;7.40;1.40;;;18.80;43.70;;;;;;5098407;28;20206;-83
2023/02/14 11:19:21;;;;;;;9.13;1.27;;;18.90;43.70;;;;;;5098103;28;20258;-82
2023/02/14 11:21:49;;;;;;;13.10;1.63;;;18.90;43.70;;;;;;5115751;28;20213;-82
2023/02/14 11:24:33;;;;;;;5.07;1.20;;;18.90;43.60;;;;;;5114095;28;20187;-82
2023/02/14 11:27:27;;;;;;;8.95;1.80;;;18.90;43.60;;;;;;5114870;28;20252;-82
2023/02/14 11:29:53;;;;;;;7.07;1.25;;;18.90;43.50;;;;;;5093914;28;20263;-82
2023/02/14 11:32:23;;;;;;;5.05;1.20;;;18.80;43.50;;;;;;5060106;28;20267;-82
2023/02/14 11:35:00;;;;;;;6.38;1.20;;;18.80;43.50;;;;;;5077004;28;20172;-82
2023/02/14 11:37:28;;;;;;;5.70;1.20;;;18.80;43.50;;;;;;5077128;28;20589;-82
2023/02/14 11:39:56;;;;;;;7.25;1.33;;;18.80;43.40;;;;;;5077270;28;20173;-82
2023/02/14 11:42:41;;;;;;;5.10;1.08;;;18.80;43.40;;;;;;5077206;28;20161;-84
2023/02/14 11:45:28;;;;;;;4.57;1.40;;;18.80;43.40;;;;;;5077086;28;20225;-82
2023/02/14 11:48:24;;;;;;;2.17;0.98;;;18.80;43.60;;;;;;5093888;28;20156;-82
2023/02/14 11:51:09;;;;;;;10.63;1.40;;;18.80;43.20;;;;;;5093415;28;20177;-82
2023/02/14 11:53:47;;;;;;;4.07;1.20;;;18.80;43.20;;;;;;5076846;28;20161;-82
2023/02/14 11:56:14;;;;;;;4.88;1.40;;;18.80;43.30;;;;;;5093189;28;20228;-82
2023/02/14 11:58:50;;;;;;;5.45;1.05;;;18.80;43.30;;;;;;5076914;28;20177;-82
2023/02/14 12:01:24;;;;;;;6.63;1.35;;;18.80;43.30;;;;;;5111897;28;20184;-81
2023/02/14 12:03:50;;;;;;;6.28;1.35;;;18.80;43.10;;;;;;5098929;28;20201;-83
2023/02/14 12:06:24;;;;;;;8.10;1.58;;;18.90;43.20;;;;;;5115930;28;20148;-81
2023/02/14 12:08:50;;;;;;;6.65;1.20;;;18.80;43.20;;;;;;5114622;28;20152;-82
2023/02/14 12:11:20;;;;;;;5.53;1.02;;;18.80;43.10;;;;;;5116018;28;20209;-82
2023/02/14 12:13:54;;;;;;;6.03;1.10;;;18.80;43.10;;;;;;5097827;28;20195;-82
2023/02/14 12:16:26;;;;;;;6.88;1.02;;;18.80;43.00;;;;;;5114496;28;20184;-82
2023/02/14 12:18:59;;;;;;;4.13;0.90;;;18.80;43.00;;;;;;5115715;28;20606;-82
2023/02/14 12:21:47;;;;;;;3.45;0.98;;;18.90;43.10;;;;;;5114374;28;20641;-82
2023/02/14 12:24:33;;;;;;;5.25;1.05;;;18.80;43.00;;;;;;5097957;28;20164;-81
2023/02/14 12:27:05;;;;;;;2.20;0.95;;;18.90;42.90;;;;;;5115878;28;20250;-81
2023/02/14 12:29:35;;;;;;;5.40;1.00;;;18.90;42.90;;;;;;5114574;28;20590;-81
2023/02/14 12:32:09;;;;;;;4.30;1.00;;;18.90;42.90;;;;;;5116362;28;20219;-81
2023/02/14 12:34:36;;;;;;;2.55;0.77;;;18.90;43.00;;;;;;5115874;28;20147;-81
2023/02/14 12:37:18;;;;;;;1.98;1.00;;;18.90;42.90;;;;;;5097446;28;20188;-81
2023/02/14 12:40:15;;;;;;;3.22;0.80;;;18.80;42.90;;;;;;5115132;28;20570;-81
2023/02/14 12:42:58;;;;;;;4.80;1.08;;;18.80;42.90;;;;;;5114844;28;20168;-81
2023/02/14 12:45:51;;;;;;;1.85;0.85;;;18.80;42.70;;;;;;5114968;28;20603;-82
2023/02/14 12:48:43;;;;;;;4.75;1.10;;;18.80;42.70;;;;;;5114914;28;20643;-81
2023/02/14 12:51:28;;;;;;;1.73;0.95;;;18.90;42.80;;;;;;5114585;28;20607;-81
2023/02/14 12:54:18;;;;;;;1.77;0.80;;;18.80;42.60;;;;;;5114995;28;20152;-81
2023/02/14 12:56:58;;;;;;;3.45;0.93;;;18.90;42.70;;;;;;5114813;28;20267;-81
2023/02/14 12:59:39;;;;;;;5.55;1.20;;;18.90;42.50;;;;;;5116102;28;20155;-81
2023/02/14 13:02:38;;;;;;;1.33;0.80;;;18.80;42.60;;;;;;5114534;28;20148;-81
2023/02/14 13:05:28;;;;;;;3.15;1.00;;;18.80;42.60;;;;;;5116292;28;20254;-82
2023/02/14 13:08:28;;;;;;;1.75;0.90;;;18.80;42.60;;;;;;5114660;28;20205;-83
2023/02/14 13:11:09;;;;;;;3.22;1.10;;;18.90;42.40;;;;;;5114156;28;20162;-82
2023/02/14 13:13:54;;;;;;;2.03;0.70;;;18.90;42.40;;;;;;5113334;28;20148;-82
2023/02/14 13:16:25;;;;;;;2.47;0.80;;;18.90;42.30;;;;;;5113119;28;20638;-81
2023/02/14 13:18:58;;;;;;;2.50;0.80;;;19.00;42.20;;;;;;5112612;28;20201;-81
2023/02/14 13:21:27;;;;;;;2.78;1.10;;;19.00;42.30;;;;;;5130702;27;20603;-82
2023/02/14 13:23:55;;;;;;;0.98;0.80;;;19.00;42.30;;;;;;5113055;28;20159;-82
2023/02/14 13:26:25;;;;;;;3.42;1.00;;;18.90;42.20;;;;;;5095946;28;20161;-82